createdAt,value
2018-03-04T00:00:51.320Z,-6.38
2018-03-04T00:02:00.778Z,-6.38
2018-03-04T00:03:10.765Z,-6.3
2018-03-04T00:04:20.219Z,-6.3
2018-03-04T00:05:29.948Z,-6.34
2018-03-04T00:06:39.930Z,-6.39
2018-03-04T00:07:49.656Z,-6.38
2018-03-04T00:08:59.644Z,-6.48
2018-03-04T00:10:09.632Z,-6.41
2018-03-04T00:11:19.351Z,-6.39
2018-03-04T00:12:29.338Z,-6.44
2018-03-04T00:13:39.059Z,-6.54
2018-03-04T00:14:49.044Z,-6.58
2018-03-04T00:15:59.027Z,-6.58
2018-03-04T00:17:08.214Z,-6.71
2018-03-04T00:18:18.203Z,-6.68
2018-03-04T00:19:28.204Z,-6.71
2018-03-04T00:20:37.924Z,-6.71
2018-03-04T00:21:47.381Z,-6.79
2018-03-04T00:22:57.373Z,-6.79
2018-03-04T00:24:07.385Z,-6.76
2018-03-04T00:25:17.138Z,-6.79
2018-03-04T00:26:27.130Z,-6.79
2018-03-04T00:27:37.118Z,-6.86
2018-03-04T00:28:47.136Z,-6.79
2018-03-04T00:29:56.863Z,-6.79
2018-03-04T00:31:06.862Z,-6.78
2018-03-04T00:32:16.858Z,-6.78
2018-03-04T00:33:26.318Z,-6.84
2018-03-04T00:34:36.083Z,-6.79
2018-03-04T00:35:46.083Z,-6.81
2018-03-04T00:36:56.080Z,-6.73
2018-03-04T00:38:06.069Z,-6.67
2018-03-04T00:39:16.060Z,-6.73
2018-03-04T00:40:26.050Z,-6.63
2018-03-04T00:41:36.037Z,-6.66
2018-03-04T00:42:45.761Z,-6.75
2018-03-04T00:43:55.216Z,-6.73
2018-03-04T00:45:04.669Z,-6.63
2018-03-04T00:46:14.384Z,-6.67
2018-03-04T00:47:24.109Z,-6.61
2018-03-04T00:48:34.101Z,-6.61
2018-03-04T00:49:44.097Z,-6.52
2018-03-04T00:50:54.085Z,-6.58
2018-03-04T00:52:04.082Z,-6.46
2018-03-04T00:53:13.815Z,-6.42
2018-03-04T00:54:23.536Z,-6.44
2018-03-04T00:55:33.252Z,-6.38
2018-03-04T00:56:43.234Z,-6.34
2018-03-04T00:57:52.687Z,-6.31
2018-03-04T00:59:02.423Z,-6.27
2018-03-04T01:00:12.144Z,-6.33
2018-03-04T01:01:21.875Z,-6.26
2018-03-04T01:02:31.596Z,-6.24
2018-03-04T01:03:41.586Z,-6.12
2018-03-04T01:04:51.313Z,-6.13
2018-03-04T01:06:01.313Z,-6.13
2018-03-04T01:07:11.072Z,-6.13
2018-03-04T01:08:21.061Z,-6.13
2018-03-04T01:09:31.054Z,-6.09
2018-03-04T01:10:41.044Z,-6.13
2018-03-04T01:11:50.766Z,-6.13
2018-03-04T01:13:00.749Z,-6.05
2018-03-04T01:14:10.477Z,-6.1
2018-03-04T01:15:20.202Z,-6.23
2018-03-04T01:16:29.922Z,-6.2
2018-03-04T01:17:39.908Z,-6.2
2018-03-04T01:18:49.893Z,-6.27
2018-03-04T01:19:59.880Z,-6.31
2018-03-04T01:21:09.340Z,-6.33
2018-03-04T01:22:19.328Z,-6.34
2018-03-04T01:23:29.309Z,-6.34
2018-03-04T01:24:39.298Z,-6.36
2018-03-04T01:25:48.756Z,-6.41
2018-03-04T01:26:58.475Z,-6.49
2018-03-04T01:28:08.042Z,-6.58
2018-03-04T01:29:18.035Z,-6.52
2018-03-04T01:30:27.492Z,-6.42
2018-03-04T01:31:37.481Z,-6.39
2018-03-04T01:32:47.470Z,-6.42
2018-03-04T01:33:57.457Z,-6.56
2018-03-04T01:35:06.912Z,-6.56
2018-03-04T01:36:16.898Z,-6.63
2018-03-04T01:37:26.931Z,-6.73
2018-03-04T01:38:36.920Z,-6.76
2018-03-04T01:39:46.647Z,-6.71
2018-03-04T01:40:56.372Z,-6.75
2018-03-04T01:42:06.383Z,-6.76
2018-03-04T01:43:16.104Z,-6.76
2018-03-04T01:44:26.120Z,-6.78
2018-03-04T01:45:36.120Z,-6.73
2018-03-04T01:46:45.840Z,-6.73
2018-03-04T01:47:55.862Z,-6.63
2018-03-04T01:49:05.613Z,-6.63
2018-03-04T01:50:15.605Z,-6.64
2018-03-04T01:51:25.684Z,-6.54
2018-03-04T01:52:34.871Z,-6.51
2018-03-04T01:53:44.870Z,-6.54
2018-03-04T01:54:54.857Z,-6.52
2018-03-04T01:56:04.849Z,-6.49
2018-03-04T01:57:14.844Z,-6.51
2018-03-04T01:58:24.853Z,-6.49
2018-03-04T01:59:34.850Z,-6.41
2018-03-04T02:00:44.564Z,-6.54
2018-03-04T02:01:54.554Z,-6.42
2018-03-04T02:03:04.279Z,-6.39
2018-03-04T02:04:14.004Z,-6.54
2018-03-04T02:05:23.745Z,-6.48
2018-03-04T02:06:33.473Z,-6.42
2018-03-04T02:07:43.193Z,-6.51
2018-03-04T02:08:53.189Z,-6.48
2018-03-04T02:10:02.907Z,-6.54
2018-03-04T02:11:12.359Z,-6.54
2018-03-04T02:12:22.346Z,-6.63
2018-03-04T02:13:32.397Z,-6.63
2018-03-04T02:14:42.389Z,-6.67
2018-03-04T02:15:52.380Z,-6.7
2018-03-04T02:17:02.376Z,-6.75
2018-03-04T02:18:12.101Z,-6.73
2018-03-04T02:19:21.823Z,-6.73
2018-03-04T02:20:31.830Z,-6.78
2018-03-04T02:21:41.817Z,-6.79
2018-03-04T02:22:51.546Z,-6.82
2018-03-04T02:24:01.540Z,-6.76
2018-03-04T02:25:11.266Z,-6.81
2018-03-04T02:26:21.312Z,-6.76
2018-03-04T02:27:30.766Z,-6.76
2018-03-04T02:28:40.757Z,-6.79
2018-03-04T02:29:50.744Z,-6.89
2018-03-04T02:31:00.733Z,-6.95
2018-03-04T02:32:10.806Z,-6.84
2018-03-04T02:33:20.269Z,-6.81
2018-03-04T02:34:30.376Z,-6.91
2018-03-04T02:35:40.096Z,-6.79
2018-03-04T02:36:50.089Z,-6.82
2018-03-04T02:37:59.835Z,-6.85
2018-03-04T02:39:09.579Z,-6.84
2018-03-04T02:40:19.317Z,-6.79
2018-03-04T02:41:29.050Z,-6.91
2018-03-04T02:42:38.502Z,-6.84
2018-03-04T02:43:48.502Z,-6.88
2018-03-04T02:44:58.238Z,-6.88
2018-03-04T02:46:07.427Z,-6.86
2018-03-04T02:47:17.434Z,-6.85
2018-03-04T02:48:27.429Z,-6.84
2018-03-04T02:49:37.158Z,-6.89
2018-03-04T02:50:46.897Z,-6.88
2018-03-04T02:51:56.920Z,-6.85
2018-03-04T02:53:06.668Z,-6.82
2018-03-04T02:54:16.403Z,-6.85
2018-03-04T02:55:26.540Z,-6.79
2018-03-04T02:56:36.267Z,-6.85
2018-03-04T02:57:46.275Z,-6.84
2018-03-04T02:58:56.270Z,-6.78
2018-03-04T03:00:06.300Z,-6.81
2018-03-04T03:01:16.292Z,-6.78
2018-03-04T03:02:26.291Z,-6.81
2018-03-04T03:03:36.304Z,-6.84
2018-03-04T03:04:46.307Z,-6.86
2018-03-04T03:05:56.303Z,-6.79
2018-03-04T03:07:06.093Z,-6.68
2018-03-04T03:08:15.282Z,-6.81
2018-03-04T03:09:24.744Z,-6.76
2018-03-04T03:10:34.203Z,-6.7
2018-03-04T03:11:43.921Z,-6.73
2018-03-04T03:12:53.911Z,-6.75
2018-03-04T03:14:03.633Z,-6.76
2018-03-04T03:15:13.096Z,-6.63
2018-03-04T03:16:22.592Z,-6.66
2018-03-04T03:17:32.321Z,-6.6
2018-03-04T03:18:42.409Z,-6.63
2018-03-04T03:19:52.401Z,-6.6
2018-03-04T03:21:02.453Z,-6.58
2018-03-04T03:22:12.443Z,-6.56
2018-03-04T03:23:22.440Z,-6.56
2018-03-04T03:24:32.255Z,-6.52
2018-03-04T03:25:42.244Z,-6.52
2018-03-04T03:26:52.242Z,-6.58
2018-03-04T03:28:02.237Z,-6.56
2018-03-04T03:29:11.954Z,-6.48
2018-03-04T03:30:21.794Z,-6.56
2018-03-04T03:31:30.720Z,-6.51
2018-03-04T03:32:40.711Z,-6.51
2018-03-04T03:33:50.716Z,-6.51
2018-03-04T03:35:00.436Z,-6.56
2018-03-04T03:36:10.259Z,-6.49
2018-03-04T03:37:19.995Z,-6.48
2018-03-04T03:38:29.986Z,-6.54
2018-03-04T03:39:39.438Z,-6.46
2018-03-04T03:40:49.162Z,-6.56
2018-03-04T03:41:59.155Z,-6.48
2018-03-04T03:43:09.156Z,-6.48
2018-03-04T03:44:19.154Z,-6.42
2018-03-04T03:45:28.899Z,-6.6
2018-03-04T03:46:38.351Z,-6.58
2018-03-04T03:47:48.070Z,-6.54
2018-03-04T03:48:58.061Z,-6.61
2018-03-04T03:50:06.985Z,-6.63
2018-03-04T03:51:16.976Z,-6.6
2018-03-04T03:52:26.699Z,-6.58
2018-03-04T03:53:36.474Z,-6.61
2018-03-04T03:54:46.465Z,-6.6
2018-03-04T03:55:56.452Z,-6.58
2018-03-04T03:57:06.180Z,-6.67
2018-03-04T03:58:15.905Z,-6.64
2018-03-04T03:59:25.906Z,-6.64
2018-03-04T04:03:25.440Z,-6.56
2018-03-04T04:04:34.898Z,-6.58
2018-03-04T04:05:44.620Z,-6.51
2018-03-04T04:06:54.617Z,-6.61
2018-03-04T04:08:04.615Z,-6.54
2018-03-04T04:09:14.599Z,-6.54
2018-03-04T04:10:23.788Z,-6.51
2018-03-04T04:11:33.787Z,-6.63
2018-03-04T04:12:43.774Z,-6.52
2018-03-04T04:13:53.764Z,-6.58
2018-03-04T04:15:03.487Z,-6.56
2018-03-04T04:16:13.230Z,-6.58
2018-03-04T04:17:22.680Z,-6.6
2018-03-04T04:18:32.672Z,-6.58
2018-03-04T04:19:42.660Z,-6.61
2018-03-04T04:20:52.655Z,-6.71
2018-03-04T04:22:02.721Z,-6.66
2018-03-04T04:23:12.445Z,-6.63
2018-03-04T04:24:22.176Z,-6.64
2018-03-04T04:25:31.639Z,-6.63
2018-03-04T04:26:41.630Z,-6.67
2018-03-04T04:27:51.083Z,-6.73
2018-03-04T04:29:01.073Z,-6.6
2018-03-04T04:30:10.265Z,-6.75
2018-03-04T04:31:19.984Z,-6.68
2018-03-04T04:32:29.705Z,-6.73
2018-03-04T04:33:39.698Z,-6.68
2018-03-04T04:34:49.687Z,-6.71
2018-03-04T04:35:59.680Z,-6.76
2018-03-04T04:37:09.397Z,-6.7
2018-03-04T04:38:19.382Z,-6.71
2018-03-04T04:39:29.097Z,-6.71
2018-03-04T04:40:39.083Z,-6.71
2018-03-04T04:41:49.066Z,-6.73
2018-03-04T04:42:58.521Z,-6.71
2018-03-04T04:44:07.980Z,-6.68
2018-03-04T04:45:17.704Z,-6.71
2018-03-04T04:46:27.432Z,-6.71
2018-03-04T04:47:37.423Z,-6.71
2018-03-04T04:48:47.423Z,-6.7
2018-03-04T04:49:57.412Z,-6.73
2018-03-04T04:51:07.397Z,-6.73
2018-03-04T04:52:16.864Z,-6.75
2018-03-04T04:53:26.851Z,-6.79
2018-03-04T04:54:36.839Z,-6.75
2018-03-04T04:55:46.564Z,-6.75
2018-03-04T04:56:56.117Z,-6.75
2018-03-04T04:58:06.109Z,-6.78
2018-03-04T04:59:16.097Z,-6.81
2018-03-04T05:00:25.815Z,-6.81
2018-03-04T05:01:35.804Z,-6.76
2018-03-04T05:02:45.900Z,-6.85
2018-03-04T05:03:55.620Z,-6.85
2018-03-04T05:05:05.081Z,-6.76
2018-03-04T05:06:14.799Z,-6.76
2018-03-04T05:07:24.522Z,-6.81
2018-03-04T05:08:34.507Z,-6.82
2018-03-04T05:09:44.497Z,-6.78
2018-03-04T05:10:54.482Z,-6.75
2018-03-04T05:12:04.207Z,-6.81
2018-03-04T05:13:13.398Z,-6.79
2018-03-04T05:14:23.387Z,-6.76
2018-03-04T05:15:33.419Z,-6.73
2018-03-04T05:16:42.875Z,-6.85
2018-03-04T05:17:52.337Z,-6.73
2018-03-04T05:19:02.351Z,-6.78
2018-03-04T05:20:12.173Z,-6.79
2018-03-04T05:21:22.156Z,-6.78
2018-03-04T05:22:31.882Z,-6.75
2018-03-04T05:23:41.610Z,-6.78
2018-03-04T05:24:51.334Z,-6.96
2018-03-04T05:26:00.791Z,-6.82
2018-03-04T05:27:10.521Z,-6.86
2018-03-04T05:28:20.241Z,-6.88
2018-03-04T05:29:29.970Z,-6.81
2018-03-04T05:30:39.965Z,-6.82
2018-03-04T05:31:49.958Z,-6.88
2018-03-04T05:32:59.947Z,-6.96
2018-03-04T05:34:09.670Z,-6.95
2018-03-04T05:35:19.663Z,-7.06
2018-03-04T05:36:29.654Z,-7.05
2018-03-04T05:37:39.651Z,-7.06
2018-03-04T05:38:49.644Z,-7.07
2018-03-04T05:39:59.638Z,-6.91
2018-03-04T05:41:09.101Z,-6.92
2018-03-04T05:42:19.091Z,-6.92
2018-03-04T05:43:29.070Z,-6.92
2018-03-04T05:44:39.057Z,-6.85
2018-03-04T05:45:49.086Z,-6.88
2018-03-04T05:46:59.076Z,-6.82
2018-03-04T05:48:08.815Z,-6.84
2018-03-04T05:49:18.806Z,-6.76
2018-03-04T05:50:28.532Z,-6.82
2018-03-04T05:51:38.261Z,-6.89
2018-03-04T05:52:47.984Z,-6.85
2018-03-04T05:53:57.994Z,-6.81
2018-03-04T05:55:07.186Z,-6.85
2018-03-04T05:56:17.174Z,-6.91
2018-03-04T05:57:26.628Z,-6.79
2018-03-04T05:58:36.627Z,-6.81
2018-03-04T05:59:46.612Z,-6.88
2018-03-04T06:00:56.338Z,-6.84
2018-03-04T06:02:06.062Z,-6.78
2018-03-04T06:03:16.065Z,-6.79
2018-03-04T06:04:25.544Z,-6.76
2018-03-04T06:05:35.005Z,-6.78
2018-03-04T06:06:44.989Z,-6.84
2018-03-04T06:07:54.982Z,-6.82
2018-03-04T06:09:04.701Z,-6.86
2018-03-04T06:10:14.426Z,-6.86
2018-03-04T06:11:24.150Z,-6.89
2018-03-04T06:12:34.142Z,-6.86
2018-03-04T06:13:44.137Z,-6.84
2018-03-04T06:14:53.868Z,-6.95
2018-03-04T06:16:03.588Z,-6.89
2018-03-04T06:17:13.590Z,-6.81
2018-03-04T06:18:22.776Z,-6.91
2018-03-04T06:19:32.232Z,-6.86
2018-03-04T06:20:41.949Z,-6.84
2018-03-04T06:21:51.931Z,-6.82
2018-03-04T06:23:01.924Z,-6.88
2018-03-04T06:24:11.920Z,-6.84
2018-03-04T06:25:21.652Z,-6.84
2018-03-04T06:26:31.637Z,-6.82
2018-03-04T06:27:41.622Z,-6.79
2018-03-04T06:28:51.603Z,-6.79
2018-03-04T06:30:01.596Z,-6.81
2018-03-04T06:31:11.589Z,-6.79
2018-03-04T06:32:21.588Z,-6.91
2018-03-04T06:33:31.376Z,-6.88
2018-03-04T06:34:41.374Z,-6.85
2018-03-04T06:35:51.356Z,-6.86
2018-03-04T06:37:01.342Z,-6.71
2018-03-04T06:38:11.118Z,-6.79
2018-03-04T06:39:20.845Z,-6.81
2018-03-04T06:40:30.594Z,-6.81
2018-03-04T06:41:40.050Z,-6.79
2018-03-04T06:42:50.041Z,-6.82
2018-03-04T06:43:59.763Z,-6.76
2018-03-04T06:45:09.764Z,-6.73
2018-03-04T06:46:19.752Z,-6.73
2018-03-04T06:47:29.473Z,-6.75
2018-03-04T06:48:39.191Z,-6.71
2018-03-04T06:49:49.179Z,-6.71
2018-03-04T06:50:59.168Z,-6.71
2018-03-04T06:52:09.165Z,-6.67
2018-03-04T06:53:18.890Z,-6.64
2018-03-04T06:54:28.874Z,-6.7
2018-03-04T06:55:38.860Z,-6.75
2018-03-04T06:56:48.850Z,-6.76
2018-03-04T06:57:58.947Z,-6.76
2018-03-04T06:59:08.669Z,-6.79
2018-03-04T07:00:18.128Z,-6.81
2018-03-04T07:01:28.117Z,-6.76
2018-03-04T07:02:37.312Z,-6.81
2018-03-04T07:03:47.036Z,-6.78
2018-03-04T07:04:56.816Z,-6.75
2018-03-04T07:06:06.269Z,-6.79
2018-03-04T07:07:16.259Z,-6.78
2018-03-04T07:08:25.985Z,-6.71
2018-03-04T07:09:35.705Z,-6.7
2018-03-04T07:10:45.749Z,-6.64
2018-03-04T07:11:55.473Z,-6.61
2018-03-04T07:13:04.926Z,-6.52
2018-03-04T07:14:14.644Z,-6.49
2018-03-04T07:15:24.369Z,-6.49
2018-03-04T07:16:34.358Z,-6.54
2018-03-04T07:17:44.083Z,-6.54
2018-03-04T07:18:53.814Z,-6.49
2018-03-04T07:20:03.804Z,-6.48
2018-03-04T07:21:13.791Z,-6.54
2018-03-04T07:22:23.627Z,-6.56
2018-03-04T07:23:33.722Z,-6.58
2018-03-04T07:24:43.715Z,-6.49
2018-03-04T07:25:53.717Z,-6.45
2018-03-04T07:27:03.710Z,-6.49
2018-03-04T07:28:13.808Z,-6.45
2018-03-04T07:29:23.806Z,-6.41
2018-03-04T07:30:33.528Z,-6.33
2018-03-04T07:31:43.522Z,-6.36
2018-03-04T07:32:53.508Z,-6.39
2018-03-04T07:34:03.227Z,-6.45
2018-03-04T07:35:13.011Z,-6.45
2018-03-04T07:36:22.462Z,-6.51
2018-03-04T07:37:32.453Z,-6.56
2018-03-04T07:38:42.453Z,-6.61
2018-03-04T07:39:52.436Z,-6.67
2018-03-04T07:41:02.161Z,-6.7
2018-03-04T07:42:12.157Z,-6.75
2018-03-04T07:43:22.143Z,-6.79
2018-03-04T07:44:32.136Z,-6.78
2018-03-04T07:45:42.129Z,-6.68
2018-03-04T07:46:52.117Z,-6.64
2018-03-04T07:48:02.123Z,-6.56
2018-03-04T07:49:11.583Z,-6.48
2018-03-04T07:50:21.303Z,-6.49
2018-03-04T07:51:31.023Z,-6.41
2018-03-04T07:52:41.075Z,-6.39
2018-03-04T07:53:50.795Z,-6.34
2018-03-04T07:54:59.989Z,-6.38
2018-03-04T07:56:09.707Z,-6.38
2018-03-04T07:57:18.905Z,-6.36
2018-03-04T07:58:28.626Z,-6.38
2018-03-04T07:59:37.929Z,-6.33
2018-03-04T08:00:47.650Z,-6.31
2018-03-04T08:01:57.103Z,-6.38
2018-03-04T08:03:06.832Z,-6.44
2018-03-04T08:04:16.017Z,-6.34
2018-03-04T08:05:26.008Z,-6.34
2018-03-04T08:06:35.731Z,-6.34
2018-03-04T08:07:45.755Z,-6.3
2018-03-04T08:08:54.941Z,-6.21
2018-03-04T08:10:04.933Z,-6.27
2018-03-04T08:11:14.664Z,-6.09
2018-03-04T08:12:24.387Z,-6.09
2018-03-04T08:13:34.418Z,-6.03
2018-03-04T08:14:44.410Z,-5.99
2018-03-04T08:15:54.125Z,-5.87
2018-03-04T08:17:04.111Z,-5.82
2018-03-04T08:18:14.103Z,-5.87
2018-03-04T08:19:24.095Z,-5.89
2018-03-04T08:20:34.079Z,-5.91
2018-03-04T08:21:44.061Z,-5.91
2018-03-04T08:22:54.063Z,-5.91
2018-03-04T08:24:04.069Z,-5.89
2018-03-04T08:25:14.072Z,-5.89
2018-03-04T08:26:23.899Z,-5.87
2018-03-04T08:27:33.623Z,-5.84
2018-03-04T08:28:43.730Z,-5.94
2018-03-04T08:29:53.716Z,-5.89
2018-03-04T08:31:03.441Z,-5.85
2018-03-04T08:32:13.162Z,-5.81
2018-03-04T08:33:23.156Z,-5.78
2018-03-04T08:34:32.936Z,-5.71
2018-03-04T08:35:42.706Z,-5.59
2018-03-04T08:36:52.444Z,-5.5
2018-03-04T08:38:02.165Z,-5.5
2018-03-04T08:39:12.197Z,-5.34
2018-03-04T08:40:22.003Z,-5.21
2018-03-04T08:41:32.109Z,-5.21
2018-03-04T08:42:41.301Z,-5.12
2018-03-04T08:43:51.288Z,-5.01
2018-03-04T08:45:01.276Z,-4.94
2018-03-04T08:46:11.004Z,-4.91
2018-03-04T08:47:20.727Z,-4.81
2018-03-04T08:48:30.719Z,-4.87
2018-03-04T08:49:40.494Z,-4.69
2018-03-04T08:50:50.328Z,-4.73
2018-03-04T08:52:00.050Z,-4.67
2018-03-04T08:53:09.781Z,-4.59
2018-03-04T08:54:19.771Z,-4.53
2018-03-04T08:55:29.223Z,-4.44
2018-03-04T08:56:39.215Z,-4.49
2018-03-04T08:57:49.209Z,-4.47
2018-03-04T08:58:59.200Z,-4.44
2018-03-04T09:00:09.225Z,-4.44
2018-03-04T09:01:19.617Z,-4.34
2018-03-04T09:02:29.074Z,-4.24
2018-03-04T09:03:39.072Z,-4.23
2018-03-04T09:04:48.800Z,-4.19
2018-03-04T09:05:58.790Z,-4.17
2018-03-04T09:07:08.782Z,-4.14
2018-03-04T09:08:18.791Z,-4.2
2018-03-04T09:09:28.775Z,-4.2
2018-03-04T09:10:38.885Z,-4.17
2018-03-04T09:11:48.877Z,-4.09
2018-03-04T09:12:58.878Z,-4.04
2018-03-04T09:14:08.604Z,-4.04
2018-03-04T09:15:18.065Z,-4.08
2018-03-04T09:16:28.055Z,-4.01
2018-03-04T09:17:37.779Z,-4.02
2018-03-04T09:18:47.509Z,-4.04
2018-03-04T09:19:57.006Z,-4.06
2018-03-04T09:21:06.729Z,-4.06
2018-03-04T09:22:16.462Z,-4.01
2018-03-04T09:23:26.479Z,-3.96
2018-03-04T09:24:36.207Z,-4.02
2018-03-04T09:25:45.666Z,-3.94
2018-03-04T09:26:55.394Z,-3.96
2018-03-04T09:28:04.857Z,-3.85
2018-03-04T09:29:14.331Z,-3.75
2018-03-04T09:30:24.327Z,-3.77
2018-03-04T09:31:34.064Z,-3.68
2018-03-04T09:32:44.065Z,-3.59
2018-03-04T09:33:54.055Z,-3.68
2018-03-04T09:35:03.782Z,-3.74
2018-03-04T09:36:13.243Z,-3.8
2018-03-04T09:37:23.236Z,-3.99
2018-03-04T09:38:33.405Z,-3.95
2018-03-04T09:39:43.400Z,-4.05
2018-03-04T09:40:53.152Z,-4.06
2018-03-04T09:42:03.149Z,-4.17
2018-03-04T09:43:12.890Z,-4.14
2018-03-04T09:44:22.635Z,-4.2
2018-03-04T09:45:32.549Z,-4.22
2018-03-04T09:46:42.286Z,-4.26
2018-03-04T09:47:52.277Z,-4.17
2018-03-04T09:49:02.307Z,-4.12
2018-03-04T09:50:12.306Z,-4.14
2018-03-04T09:51:22.038Z,-4.17
2018-03-04T09:52:32.028Z,-4.22
2018-03-04T09:53:42.021Z,-4.19
2018-03-04T09:54:52.018Z,-4.2
2018-03-04T09:56:02.023Z,-4.13
2018-03-04T09:57:12.022Z,-4.27
2018-03-04T09:58:21.750Z,-4.23
2018-03-04T09:59:31.582Z,-4.14
2018-03-04T10:00:41.584Z,-4.17
2018-03-04T10:01:51.040Z,-4.17
2018-03-04T10:03:00.767Z,-4.06
2018-03-04T10:04:09.957Z,-3.95
2018-03-04T10:05:19.423Z,-3.88
2018-03-04T10:06:29.152Z,-3.99
2018-03-04T10:07:39.150Z,-3.85
2018-03-04T10:08:49.219Z,-3.84
2018-03-04T10:09:58.691Z,-3.88
2018-03-04T10:11:07.890Z,-3.94
2018-03-04T10:12:17.350Z,-3.95
2018-03-04T10:13:27.075Z,-4.01
2018-03-04T10:14:36.808Z,-3.87
2018-03-04T10:15:46.797Z,-3.99
2018-03-04T10:16:56.798Z,-4.06
2018-03-04T10:18:06.526Z,-4.02
2018-03-04T10:19:16.529Z,-4.01
2018-03-04T10:20:26.570Z,-4.02
2018-03-04T10:21:36.641Z,-4.01
2018-03-04T10:22:46.367Z,-3.98
2018-03-04T10:23:55.838Z,-4.01
2018-03-04T10:25:05.029Z,-3.99
2018-03-04T10:26:14.551Z,-3.88
2018-03-04T10:27:24.288Z,-3.91
2018-03-04T10:28:34.285Z,-3.83
2018-03-04T10:29:44.286Z,-3.75
2018-03-04T10:30:54.287Z,-3.47
2018-03-04T10:32:04.283Z,-3.25
2018-03-04T10:33:14.013Z,-3.04
2018-03-04T10:34:23.525Z,-2.87
2018-03-04T10:35:33.254Z,-2.75
2018-03-04T10:36:42.983Z,-2.7
2018-03-04T10:37:52.445Z,-2.52
2018-03-04T10:39:02.185Z,-2.34
2018-03-04T10:40:12.184Z,-2.26
2018-03-04T10:41:22.242Z,-2.37
2018-03-04T10:42:31.714Z,-2.23
2018-03-04T10:43:41.437Z,-2.2
2018-03-04T10:44:51.431Z,-2.02
2018-03-04T10:46:01.257Z,-2.07
2018-03-04T10:47:10.983Z,-1.89
2018-03-04T10:48:20.977Z,-1.86
2018-03-04T10:49:30.713Z,-1.75
2018-03-04T10:50:40.443Z,-1.74
2018-03-04T10:51:50.448Z,-1.66
2018-03-04T10:53:00.185Z,-1.51
2018-03-04T10:54:09.646Z,-1.4
2018-03-04T10:55:19.643Z,-1.33
2018-03-04T10:56:29.103Z,-1.29
2018-03-04T10:57:39.102Z,-1.17
2018-03-04T10:58:49.126Z,-1.11
2018-03-04T10:59:59.128Z,-0.99
2018-03-04T11:01:08.867Z,-0.97
2018-03-04T11:02:18.869Z,-0.82
2018-03-04T11:03:28.866Z,-0.91
2018-03-04T11:04:38.860Z,-0.77
2018-03-04T11:05:48.610Z,-0.75
2018-03-04T11:06:58.601Z,-0.72
2018-03-04T11:08:08.329Z,-0.6
2018-03-04T11:09:18.380Z,-0.45
2018-03-04T11:10:28.380Z,-0.3
2018-03-04T11:11:38.224Z,-0.13
2018-03-04T11:12:48.221Z,-0.03
2018-03-04T11:13:58.215Z,0.01
2018-03-04T11:15:07.674Z,0.08
2018-03-04T11:16:16.873Z,0.36
2018-03-04T11:17:26.601Z,0.37
2018-03-04T11:18:36.332Z,0.59
2018-03-04T11:19:46.327Z,0.73
2018-03-04T11:20:56.332Z,0.88
2018-03-04T11:22:06.064Z,0.92
2018-03-04T11:23:15.796Z,1.03
2018-03-04T11:24:25.554Z,1.14
2018-03-04T11:25:34.799Z,1.03
2018-03-04T11:26:44.808Z,0.91
2018-03-04T11:27:54.011Z,0.91
2018-03-04T11:29:04.024Z,0.88
2018-03-04T11:30:13.762Z,0.81
2018-03-04T11:31:23.497Z,0.76
2018-03-04T11:32:33.335Z,0.85
2018-03-04T11:33:43.068Z,0.81
2018-03-04T11:34:52.534Z,0.82
2018-03-04T11:36:02.002Z,0.84
2018-03-04T11:37:11.741Z,0.78
2018-03-04T11:38:21.486Z,0.7
2018-03-04T11:39:30.686Z,0.74
2018-03-04T11:40:39.619Z,0.56
2018-03-04T11:41:49.097Z,0.71
2018-03-04T11:42:58.891Z,1.04
2018-03-04T11:44:08.901Z,1.25
2018-03-04T11:45:18.102Z,1.56
2018-03-04T11:46:27.304Z,1.61
2018-03-04T11:47:36.508Z,1.92
2018-03-04T11:48:46.237Z,2.01
2018-03-04T11:49:56.232Z,2.22
2018-03-04T11:51:06.254Z,2.52
2018-03-04T11:52:16.269Z,2.62
2018-03-04T11:53:26.019Z,2.8
2018-03-04T11:54:36.016Z,2.94
2018-03-04T11:55:46.024Z,3.08
2018-03-04T11:56:55.814Z,3.26
2018-03-04T11:58:05.819Z,3.43
2018-03-04T11:59:15.553Z,3.66
2018-03-04T12:00:25.289Z,3.16
2018-03-04T12:01:34.759Z,3.26
2018-03-04T12:02:44.497Z,3.18
2018-03-04T12:03:54.585Z,3.13
2018-03-04T12:05:04.380Z,3.52
2018-03-04T12:06:14.116Z,3.81
2018-03-04T12:07:23.935Z,4.3
2018-03-04T12:08:34.003Z,4.5
2018-03-04T12:09:44.199Z,4.68
2018-03-04T12:10:54.278Z,4.92
2018-03-04T12:12:04.293Z,5.12
2018-03-04T12:13:13.762Z,5.19
2018-03-04T12:14:23.493Z,5.25
2018-03-04T12:15:32.701Z,5.41
2018-03-04T12:16:42.715Z,5.43
2018-03-04T12:17:52.467Z,5.46
2018-03-04T12:19:02.476Z,5.61
2018-03-04T12:20:12.210Z,5.72
2018-03-04T12:21:21.678Z,5.84
2018-03-04T12:22:31.688Z,6.06
2018-03-04T12:23:41.693Z,6.2
2018-03-04T12:24:51.161Z,6.35
2018-03-04T12:26:01.174Z,6.36
2018-03-04T12:27:10.378Z,6.36
2018-03-04T12:28:20.132Z,6.44
2018-03-04T12:29:29.866Z,6.62
2018-03-04T12:30:39.981Z,6.77
2018-03-04T12:31:49.446Z,6.8
2018-03-04T12:32:59.448Z,7.05
2018-03-04T12:34:09.460Z,7.32
2018-03-04T12:35:19.199Z,7.4
2018-03-04T12:36:28.948Z,7.67
2018-03-04T12:37:38.956Z,7.84
2018-03-04T12:38:48.695Z,7.87
2018-03-04T12:39:58.439Z,8.02
2018-03-04T12:41:07.910Z,8.08
2018-03-04T12:42:17.380Z,8.18
2018-03-04T12:43:27.393Z,8.24
2018-03-04T12:44:37.398Z,8.17
2018-03-04T12:45:46.875Z,8.23
2018-03-04T12:46:56.888Z,8.27
2018-03-04T12:48:06.900Z,8.26
2018-03-04T12:49:16.905Z,8.24
2018-03-04T12:50:26.910Z,7.96
2018-03-04T12:51:36.661Z,7.47
2018-03-04T12:52:46.398Z,6.74
2018-03-04T12:53:56.147Z,6.35
2018-03-04T12:55:05.619Z,5.79
2018-03-04T12:56:15.964Z,5.56
2018-03-04T12:57:26.647Z,5.55
2018-03-04T12:58:36.717Z,5.52
2018-03-04T12:59:46.808Z,5.46
2018-03-04T13:00:56.551Z,5.16
2018-03-04T13:02:06.569Z,5.25
2018-03-04T13:03:16.312Z,5.26
2018-03-04T13:04:26.057Z,5.33
2018-03-04T13:05:34.994Z,5.88
2018-03-04T13:06:44.735Z,6.39
2018-03-04T13:07:54.525Z,6.1
2018-03-04T13:09:04.273Z,5.87
2018-03-04T13:10:14.281Z,5.7
2018-03-04T13:11:24.025Z,5.94
2018-03-04T13:12:33.766Z,6.06
2018-03-04T13:13:43.239Z,5.99
2018-03-04T13:14:52.711Z,5.43
2018-03-04T13:16:02.724Z,4.92
2018-03-04T13:17:12.725Z,4.83
2018-03-04T13:18:22.018Z,5.12
2018-03-04T13:19:31.504Z,5.29
2018-03-04T13:20:41.508Z,5.37
2018-03-04T13:21:51.249Z,5.37
2018-03-04T13:23:01.092Z,5.36
2018-03-04T13:24:11.105Z,5.4
2018-03-04T13:25:21.104Z,5.33
2018-03-04T13:26:31.108Z,5.29
2018-03-04T13:27:40.845Z,5.22
2018-03-04T13:28:50.620Z,5.15
2018-03-04T13:30:00.356Z,5.2
2018-03-04T13:31:09.825Z,5.08
2018-03-04T13:32:19.564Z,5
2018-03-04T13:33:29.303Z,5.01
2018-03-04T13:34:39.306Z,4.57
2018-03-04T13:35:49.039Z,4.24
2018-03-04T13:36:59.043Z,3.84
2018-03-04T13:38:08.782Z,3.63
2018-03-04T13:39:18.783Z,3.43
2018-03-04T13:40:28.790Z,3.55
2018-03-04T13:41:38.525Z,3.56
2018-03-04T13:42:48.529Z,3.33
2018-03-04T13:43:58.264Z,3.46
2018-03-04T13:45:08.017Z,3.19
2018-03-04T13:46:17.761Z,2.9
2018-03-04T13:47:27.330Z,2.77
2018-03-04T13:48:37.063Z,2.9
2018-03-04T13:49:46.535Z,2.75
2018-03-04T13:50:56.274Z,2.94
2018-03-04T13:52:06.014Z,2.91
2018-03-04T13:53:16.018Z,2.97
2018-03-04T13:54:26.020Z,2.85
2018-03-04T13:55:35.761Z,2.93
2018-03-04T13:56:45.499Z,2.91
2018-03-04T13:57:55.501Z,2.85
2018-03-04T13:59:05.239Z,2.88
2018-03-04T14:00:14.978Z,2.7
2018-03-04T14:01:24.767Z,2.76
2018-03-04T14:02:34.503Z,2.62
2018-03-04T14:03:44.506Z,2.58
2018-03-04T14:04:53.986Z,2.47
2018-03-04T14:06:03.728Z,2.34
2018-03-04T14:07:13.723Z,2.25
2018-03-04T14:08:23.719Z,2.19
2018-03-04T14:09:33.458Z,2.08
2018-03-04T14:10:43.458Z,2.03
2018-03-04T14:11:53.460Z,1.89
2018-03-04T14:13:03.468Z,1.85
2018-03-04T14:14:13.466Z,1.84
2018-03-04T14:15:23.467Z,1.82
2018-03-04T14:16:33.378Z,1.7
2018-03-04T14:17:43.389Z,1.56
2018-03-04T14:18:53.400Z,1.56
2018-03-04T14:20:03.132Z,1.46
2018-03-04T14:21:12.867Z,1.43
2018-03-04T14:22:22.872Z,1.25
2018-03-04T14:23:32.601Z,1.22
2018-03-04T14:24:41.810Z,1.2
2018-03-04T14:25:51.815Z,1.18
2018-03-04T14:27:01.550Z,1.1
2018-03-04T14:28:11.026Z,1.04
2018-03-04T14:29:20.821Z,0.95
2018-03-04T14:30:30.862Z,0.94
2018-03-04T14:31:40.070Z,0.86
2018-03-04T14:32:50.222Z,0.81
2018-03-04T14:34:00.229Z,0.77
2018-03-04T14:35:09.966Z,0.68
2018-03-04T14:36:19.447Z,0.59
2018-03-04T14:37:29.437Z,0.63
2018-03-04T14:38:39.165Z,0.49
2018-03-04T14:39:49.161Z,0.48
2018-03-04T14:40:58.895Z,0.47
2018-03-04T14:42:08.891Z,0.33
2018-03-04T14:43:18.897Z,0.34
2018-03-04T14:44:28.626Z,0.26
2018-03-04T14:45:38.351Z,0.15
2018-03-04T14:46:48.081Z,0.15
2018-03-04T14:47:57.804Z,-0.05
2018-03-04T14:49:07.288Z,0.05
2018-03-04T14:50:17.036Z,-0.02
2018-03-04T14:51:26.763Z,-0.03
2018-03-04T14:52:36.766Z,-0.1
2018-03-04T14:53:46.772Z,-0.21
2018-03-04T14:54:56.771Z,-0.24
2018-03-04T14:56:06.504Z,-0.2
2018-03-04T14:57:15.965Z,-0.28
2018-03-04T14:58:25.696Z,-0.31
2018-03-04T14:59:35.436Z,-0.36
2018-03-04T15:00:44.898Z,-0.33
2018-03-04T15:01:54.889Z,-0.38
2018-03-04T15:03:04.621Z,-0.41
2018-03-04T15:04:14.348Z,-0.41
2018-03-04T15:05:24.073Z,-0.44
2018-03-04T15:06:33.803Z,-0.42
2018-03-04T15:07:43.531Z,-0.46
2018-03-04T15:08:53.259Z,-0.38
2018-03-04T15:10:03.256Z,-0.49
2018-03-04T15:11:13.259Z,-0.48